Time;durP1;ratioP1;P1;durP2;ratioP2;P2;SDS_P1;SDS_P2;PMS_P1;PMS_P2;Temp;Humidity;BMP_temperature;BMP_pressure;BME280_temperature;BME280_humidity;BME280_pressure;Samples;Min_cycle;Max_cycle;Signal;HPM_P1;HPM_P2
2022/11/27 00:03:00;;;;;;;68.00;29.37;;;;;;;4.43;92.31;101546.48;2183973;80;21031;-81
2022/11/27 00:06:01;;;;;;;59.75;26.90;;;;;;;4.44;92.36;101543.38;2186097;81;21026;-81
2022/11/27 00:09:09;;;;;;;66.30;29.75;;;;;;;4.45;92.37;101543.30;2186501;81;21009;-81
2022/11/27 00:12:10;;;;;;;62.62;28.25;;;;;;;4.45;92.32;101548.56;2188115;81;21066;-81
2022/11/27 00:15:11;;;;;;;58.98;28.87;;;;;;;4.48;92.40;101544.44;2188580;81;21036;-80
2022/11/27 00:18:12;;;;;;;66.67;29.07;;;;;;;4.48;92.23;101543.59;2143665;81;21588;-81
2022/11/27 00:21:21;;;;;;;68.10;28.85;;;;;;;4.47;92.27;101547.98;2181133;81;21044;-81
2022/11/27 00:24:22;;;;;;;65.72;30.20;;;;;;;4.46;92.07;101551.56;2186089;81;21087;-81
2022/11/27 00:27:23;;;;;;;73.50;30.92;;;;;;;4.45;92.21;101551.19;2183934;81;21042;-81
2022/11/27 00:30:24;;;;;;;78.57;32.83;;;;;;;4.41;91.89;101548.35;2178027;81;21514;-81
2022/11/27 00:33:26;;;;;;;67.85;32.48;;;;;;;4.29;91.50;101549.57;2158511;81;21482;-81
2022/11/27 00:36:30;;;;;;;72.27;31.95;;;;;;;4.17;91.47;101551.15;2178634;80;21464;-82
2022/11/27 00:39:32;;;;;;;73.70;31.17;;;;;;;4.15;91.75;101559.58;2175758;80;21123;-80
2022/11/27 00:42:34;;;;;;;72.47;31.65;;;;;;;4.16;91.90;101558.63;2183539;80;20965;-81
2022/11/27 00:45:35;;;;;;;74.60;32.33;;;;;;;4.18;92.05;101554.98;2172318;80;21048;-82
2022/11/27 00:48:36;;;;;;;75.95;32.58;;;;;;;4.24;92.12;101561.19;2171327;80;22275;-81
2022/11/27 00:51:37;;;;;;;75.10;34.38;;;;;;;4.29;92.14;101560.92;2176396;80;21626;-82
2022/11/27 00:54:38;;;;;;;64.97;30.95;;;;;;;4.30;91.87;101557.34;2183691;80;20989;-81
2022/11/27 00:57:39;;;;;;;75.15;33.85;;;;;;;4.28;91.91;101556.61;2182487;80;20997;-81
2022/11/27 01:00:40;;;;;;;69.82;31.30;;;;;;;4.31;91.94;101556.43;2178819;80;21040;-81
2022/11/27 01:03:43;;;;;;;72.20;33.13;;;;;;;4.32;91.84;101555.48;2177121;80;22244;-81
2022/11/27 01:06:44;;;;;;;67.12;32.10;;;;;;;4.30;91.67;101554.72;2182579;80;21076;-81
2022/11/27 01:09:45;;;;;;;64.10;30.20;;;;;;;4.36;91.89;101557.45;2184883;80;20965;-82
2022/11/27 01:12:49;;;;;;;76.82;34.38;;;;;;;4.38;91.80;101553.80;2177467;80;21021;-81
2022/11/27 01:16:16;;;;;;;68.75;32.15;;;;;;;4.41;91.80;101561.50;2177879;79;21043;-81
2022/11/27 01:19:16;;;;;;;75.62;32.13;;;;;;;4.45;91.87;101555.13;2180716;80;21064;-82
2022/11/27 01:22:17;;;;;;;71.15;31.57;;;;;;;4.52;91.90;101557.39;2175809;80;21532;-81
2022/11/27 01:25:18;;;;;;;76.85;32.25;;;;;;;4.53;91.73;101566.48;2172871;80;21473;-81
2022/11/27 01:28:24;;;;;;;71.20;32.65;;;;;;;4.52;91.59;101551.66;2173866;80;20999;-81
2022/11/27 01:31:28;;;;;;;77.08;33.40;;;;;;;4.51;91.50;101554.39;2176928;80;20998;-81
2022/11/27 01:34:29;;;;;;;74.50;31.70;;;;;;;4.47;91.39;101558.49;2178794;80;21076;-81
2022/11/27 01:37:30;;;;;;;84.25;35.05;;;;;;;4.45;91.33;101561.70;2187206;80;21064;-81
2022/11/27 01:40:31;;;;;;;76.87;34.08;;;;;;;4.45;91.50;101564.33;2199591;80;21876;-81
2022/11/27 01:43:40;;;;;;;68.78;31.68;;;;;;;4.47;91.55;101566.38;2195372;80;21001;-82
2022/11/27 01:46:47;;;;;;;69.37;32.48;;;;;;;4.48;91.41;101567.25;2188785;80;21546;-81
2022/11/27 01:49:52;;;;;;;66.87;30.80;;;;;;;4.47;91.36;101567.69;2198783;80;21064;-81
2022/11/27 01:52:59;;;;;;;75.90;33.08;;;;;;;4.37;91.04;101567.05;2195022;80;21001;-81
2022/11/27 01:56:01;;;;;;;71.67;32.50;;;;;;;4.31;91.17;101559.50;2197223;80;21040;-81
2022/11/27 01:59:03;;;;;;;72.27;32.25;;;;;;;4.30;91.45;101561.29;2197001;80;20969;-81
2022/11/27 02:02:04;;;;;;;71.05;31.00;;;;;;;4.28;91.37;101548.73;2194003;80;21010;-81
2022/11/27 02:05:05;;;;;;;74.87;32.98;;;;;;;4.20;91.31;101549.18;2167804;80;21353;-81
2022/11/27 02:08:10;;;;;;;67.82;30.70;;;;;;;4.21;91.61;101559.21;2190529;80;21006;-81
2022/11/27 02:11:20;;;;;;;72.17;32.15;;;;;;;4.25;91.77;101555.02;2193233;80;21053;-80
2022/11/27 02:14:55;;;;;;;71.12;30.40;;;;;;;4.29;91.87;101550.41;2194234;80;20971;-81
2022/11/27 02:18:05;;;;;;;74.97;32.00;;;;;;;4.30;91.70;101557.34;2190443;80;21052;-81
2022/11/27 02:21:11;;;;;;;76.33;31.20;;;;;;;4.26;91.62;101564.58;2194131;80;20995;-81
2022/11/27 02:24:41;;;;;;;71.02;30.88;;;;;;;4.25;91.74;101558.08;2188215;80;21608;-81
2022/11/27 02:28:09;;;;;;;64.35;29.75;;;;;;;4.27;91.75;101555.74;2188899;80;21092;-79
2022/11/27 02:31:15;;;;;;;62.75;28.70;;;;;;;4.32;91.75;101554.17;2194720;80;21635;-80
2022/11/27 02:34:37;;;;;;;71.87;30.70;;;;;;;4.25;91.12;101559.39;2191866;80;21353;-80
2022/11/27 02:37:57;;;;;;;69.32;31.02;;;;;;;4.16;91.25;101556.84;2188208;80;21104;-80
2022/11/27 02:41:16;;;;;;;70.15;30.70;;;;;;;4.09;91.31;101556.00;2197054;80;21500;-80
2022/11/27 02:44:19;;;;;;;70.45;28.50;;;;;;;4.03;91.41;101555.89;2138900;82;21868;-80
2022/11/27 02:47:22;;;;;;;65.20;29.30;;;;;;;4.03;91.64;101547.55;2170472;81;21056;-79
2022/11/27 02:50:27;;;;;;;69.40;30.10;;;;;;;4.03;91.58;101546.23;2167750;82;21082;-79
2022/11/27 02:53:36;;;;;;;65.78;30.02;;;;;;;4.06;91.64;101541.73;2169258;82;21025;-82
2022/11/27 02:56:40;;;;;;;62.38;28.52;;;;;;;4.01;91.51;101544.63;2169977;82;21371;-81
2022/11/27 02:59:44;;;;;;;63.08;27.58;;;;;;;3.97;91.45;101537.84;2171837;82;21085;-81
2022/11/27 03:02:52;;;;;;;65.52;28.85;;;;;;;3.93;91.49;101544.22;2171650;82;21021;-81
2022/11/27 03:05:57;;;;;;;59.98;27.70;;;;;;;3.94;91.64;101542.83;2167927;82;21072;-82
2022/11/27 03:09:03;;;;;;;60.90;27.85;;;;;;;3.95;91.54;101548.45;2171039;82;21073;-81
2022/11/27 03:12:06;;;;;;;53.20;24.60;;;;;;;3.89;91.20;101540.94;2171544;82;20980;-82
2022/11/27 03:15:09;;;;;;;53.95;26.60;;;;;;;3.87;91.25;101544.11;2167822;81;21027;-81
2022/11/27 03:18:21;;;;;;;63.13;28.25;;;;;;;3.93;91.45;101542.44;2165256;82;21002;-82
2022/11/27 03:21:37;;;;;;;64.55;28.25;;;;;;;3.91;91.45;101546.08;2167939;82;21437;-82
2022/11/27 03:24:38;;;;;;;62.93;27.77;;;;;;;3.87;91.36;101541.95;2169368;82;21052;-81
2022/11/27 03:28:02;;;;;;;57.67;26.20;;;;;;;3.86;91.29;101540.25;2170307;82;20961;-81
2022/11/27 03:31:03;;;;;;;61.05;29.37;;;;;;;3.87;91.34;101534.92;2138019;82;21018;-82
2022/11/27 03:34:05;;;;;;;65.52;28.45;;;;;;;3.92;91.46;101526.31;2167220;82;21010;-81
2022/11/27 03:37:06;;;;;;;60.70;28.20;;;;;;;3.95;91.52;101539.27;2174428;80;22232;-81
2022/11/27 03:40:09;;;;;;;65.67;29.72;;;;;;;3.89;91.29;101534.84;2182224;80;21131;-81
2022/11/27 03:43:22;;;;;;;55.75;25.85;;;;;;;3.86;91.50;101529.74;2185698;81;20989;-82
2022/11/27 03:46:53;;;;;;;57.83;27.22;;;;;;;3.93;91.72;101534.55;2179935;81;21505;-82
2022/11/27 03:50:21;;;;;;;58.52;26.23;;;;;;;3.96;91.56;101539.63;2187159;81;21030;-81
2022/11/27 03:53:43;;;;;;;62.10;26.82;;;;;;;3.94;91.41;101541.52;2181203;81;21092;-82
2022/11/27 03:56:57;;;;;;;60.12;27.02;;;;;;;3.95;91.56;101544.98;2213016;80;20989;-82
2022/11/27 04:00:03;;;;;;;60.38;27.65;;;;;;;3.97;91.64;101540.47;2172729;81;21000;-81
2022/11/27 04:03:09;;;;;;;62.93;28.02;;;;;;;3.99;91.66;101534.19;2196466;80;21096;-82
2022/11/27 04:06:10;;;;;;;53.38;24.95;;;;;;;3.99;91.61;101528.94;2191680;80;21081;-81
2022/11/27 04:09:12;;;;;;;59.45;26.85;;;;;;;4.02;91.67;101527.45;2197490;80;20994;-81
2022/11/27 04:12:13;;;;;;;60.03;27.30;;;;;;;4.03;91.57;101523.06;2196832;80;21069;-82
2022/11/27 04:15:14;;;;;;;55.12;25.43;;;;;;;3.98;91.50;101515.44;2190480;80;21020;-82
2022/11/27 04:18:15;;;;;;;60.33;27.37;;;;;;;4.00;91.55;101512.73;2195391;80;21043;-82
2022/11/27 04:21:16;;;;;;;56.77;26.40;;;;;;;3.98;91.57;101513.29;2166547;82;21021;-82
2022/11/27 04:24:17;;;;;;;61.42;27.70;;;;;;;4.01;91.73;101516.57;2192239;80;21115;-81
2022/11/27 04:27:18;;;;;;;60.45;26.42;;;;;;;3.99;91.57;101514.97;2186630;80;21049;-81
2022/11/27 04:30:19;;;;;;;62.08;27.73;;;;;;;3.91;91.37;101514.09;2196005;80;21052;-82
2022/11/27 04:33:21;;;;;;;73.20;29.05;;;;;;;3.83;91.41;101517.66;2188051;80;21454;-81
2022/11/27 04:36:22;;;;;;;67.87;28.70;;;;;;;3.80;91.65;101512.13;2198781;80;20985;-82
2022/11/27 04:39:23;;;;;;;60.92;26.97;;;;;;;3.75;91.66;101508.07;2192818;80;21033;-82
2022/11/27 04:42:25;;;;;;;66.92;29.42;;;;;;;3.63;91.62;101514.84;2189310;80;21133;-82
2022/11/27 04:45:26;;;;;;;71.20;29.05;;;;;;;3.59;91.87;101501.53;2193388;80;21043;-81
2022/11/27 04:48:27;;;;;;;72.92;27.48;;;;;;;3.56;91.95;101510.42;2194897;80;21023;-81
2022/11/27 04:51:28;;;;;;;66.55;26.77;;;;;;;3.50;92.04;101506.84;2198325;80;21026;-81
2022/11/27 04:54:29;;;;;;;70.55;27.95;;;;;;;3.48;92.25;101503.92;2194980;80;21053;-81
2022/11/27 04:57:30;;;;;;;72.32;29.32;;;;;;;3.44;92.28;101499.80;2212972;80;20983;-82
2022/11/27 05:00:31;;;;;;;64.17;28.45;;;;;;;3.37;92.39;101497.50;2169474;81;21007;-81
2022/11/27 05:03:33;;;;;;;73.22;30.10;;;;;;;3.33;92.52;101495.99;2179605;81;20962;-82
2022/11/27 05:06:34;;;;;;;70.35;29.52;;;;;;;3.31;92.72;101502.25;2173143;81;21524;-81
2022/11/27 05:09:35;;;;;;;73.28;31.52;;;;;;;3.28;92.77;101502.43;2177851;81;20963;-81
2022/11/27 05:12:36;;;;;;;74.80;29.87;;;;;;;3.25;92.90;101503.44;2181545;81;21086;-82
2022/11/27 05:15:37;;;;;;;83.58;32.23;;;;;;;3.20;92.93;101497.60;2166883;82;21076;-81
2022/11/27 05:18:38;;;;;;;83.90;32.60;;;;;;;3.18;93.15;101501.23;2177415;81;21030;-81
2022/11/27 05:21:40;;;;;;;85.20;32.53;;;;;;;3.16;93.29;101504.44;2172090;81;22002;-81
2022/11/27 05:24:40;;;;;;;83.52;32.90;;;;;;;3.14;93.43;101508.44;2200592;80;21032;-81
2022/11/27 05:27:41;;;;;;;74.75;29.12;;;;;;;3.13;93.57;101512.84;2193433;80;20978;-81
2022/11/27 05:30:43;;;;;;;86.35;33.18;;;;;;;3.12;93.65;101509.83;2190745;80;21042;-81
2022/11/27 05:33:44;;;;;;;80.83;30.88;;;;;;;3.08;93.73;101512.72;2170579;81;21526;-79
2022/11/27 05:36:45;;;;;;;80.80;31.68;;;;;;;3.11;93.89;101513.39;2171623;81;21028;-82
2022/11/27 05:39:47;;;;;;;81.80;31.90;;;;;;;3.11;93.94;101511.23;2160375;81;21027;-82
2022/11/27 05:42:48;;;;;;;82.70;31.90;;;;;;;3.10;94.02;101522.20;2192474;80;21063;-77
2022/11/27 05:45:48;;;;;;;97.17;32.28;;;;;;;3.13;94.14;101514.16;2201138;80;21057;-77
2022/11/27 05:48:50;;;;;;;77.55;31.17;;;;;;;3.20;94.34;101519.90;2193449;80;21065;-76
2022/11/27 05:51:50;;;;;;;85.30;33.40;;;;;;;3.27;94.42;101525.20;2194168;80;20989;-75
2022/11/27 05:54:55;;;;;;;84.90;30.68;;;;;;;3.37;94.49;101519.80;2201007;80;21032;-76
2022/11/27 05:57:56;;;;;;;74.00;28.47;;;;;;;3.42;94.39;101519.55;2200050;80;21270;-80
2022/11/27 06:00:57;;;;;;;78.62;30.02;;;;;;;3.48;94.43;101521.83;2195390;80;21575;-82
2022/11/27 06:04:00;;;;;;;73.10;29.40;;;;;;;3.57;94.53;101530.48;2197644;80;21422;-80
2022/11/27 06:07:01;;;;;;;75.90;30.65;;;;;;;3.66;94.50;101525.64;2195962;80;21037;-76
2022/11/27 06:10:02;;;;;;;76.90;30.77;;;;;;;3.73;94.45;101516.50;2197360;80;20966;-75
2022/11/27 06:13:03;;;;;;;79.92;30.60;;;;;;;3.73;94.17;101512.08;2193516;80;21159;-79
2022/11/27 06:16:09;;;;;;;72.42;30.85;;;;;;;3.72;94.09;101513.50;2176642;80;20969;-78
2022/11/27 06:19:10;;;;;;;70.65;27.90;;;;;;;3.72;94.03;101518.75;2192728;80;21037;-78
2022/11/27 06:22:11;;;;;;;79.70;28.65;;;;;;;3.68;93.94;101526.41;2194304;80;21112;-78
2022/11/27 06:25:12;;;;;;;74.27;29.57;;;;;;;3.74;94.15;101533.92;2191027;80;21073;-80
2022/11/27 06:28:13;;;;;;;71.17;28.55;;;;;;;3.81;94.27;101543.16;2198259;80;21016;-77
2022/11/27 06:31:21;;;;;;;93.12;28.85;;;;;;;3.85;94.14;101554.32;2201087;79;21040;-76
2022/11/27 06:34:22;;;;;;;71.57;28.73;;;;;;;3.86;94.18;101551.63;2188991;81;21041;-76
2022/11/27 06:37:23;;;;;;;73.75;29.10;;;;;;;3.92;94.12;101556.52;2188275;81;21045;-77
2022/11/27 06:40:24;;;;;;;68.92;27.45;;;;;;;3.94;94.12;101549.40;2183869;81;21010;-77
2022/11/27 06:43:25;;;;;;;77.20;28.42;;;;;;;4.02;94.19;101551.56;2187125;81;21052;-77
2022/11/27 06:46:28;;;;;;;74.15;29.52;;;;;;;4.05;94.05;101555.31;2188345;81;22322;-76
2022/11/27 06:49:30;;;;;;;64.17;28.27;;;;;;;4.11;94.13;101552.80;2187269;81;21081;-77
2022/11/27 06:52:31;;;;;;;64.37;25.90;;;;;;;4.18;94.12;101551.52;2191526;80;20999;-76
2022/11/27 06:55:32;;;;;;;76.67;28.62;;;;;;;4.23;94.18;101548.99;2153395;82;20966;-76
2022/11/27 06:58:34;;;;;;;84.17;28.17;;;;;;;4.27;94.07;101547.86;2157622;82;21555;-76
2022/11/27 07:01:35;;;;;;;67.80;26.02;;;;;;;4.17;93.46;101547.20;2158607;82;21036;-77
2022/11/27 07:04:39;;;;;;;69.90;26.68;;;;;;;4.09;93.38;101552.06;2156902;82;21069;-76
2022/11/27 07:07:40;;;;;;;76.97;26.48;;;;;;;4.06;93.41;101547.83;2157775;82;21498;-76
2022/11/27 07:10:41;;;;;;;64.95;26.60;;;;;;;3.95;93.34;101552.39;2191731;80;21436;-76
2022/11/27 07:13:43;;;;;;;64.60;25.95;;;;;;;3.96;93.67;101546.19;2159939;82;20998;-76
2022/11/27 07:16:44;;;;;;;76.57;26.57;;;;;;;3.94;93.66;101552.02;2158535;82;21076;-76
2022/11/27 07:19:47;;;;;;;90.40;25.30;;;;;;;3.89;93.53;101559.31;2159948;82;21033;-77
2022/11/27 07:22:48;;;;;;;74.85;25.23;;;;;;;3.84;93.61;101553.48;2154473;82;21710;-76
2022/11/27 07:25:49;;;;;;;66.28;25.32;;;;;;;3.78;93.68;101552.05;2158164;82;21137;-76
2022/11/27 07:28:51;;;;;;;68.72;24.82;;;;;;;3.77;93.83;101554.31;2160532;82;21056;-76
2022/11/27 07:31:52;;;;;;;70.95;26.23;;;;;;;3.70;93.78;101556.05;2187787;81;21046;-78
2022/11/27 07:34:53;;;;;;;83.20;27.95;;;;;;;3.63;93.91;101555.53;2158013;81;21515;-76
2022/11/27 07:37:54;;;;;;;73.42;26.68;;;;;;;3.57;94.05;101547.54;2158618;81;21048;-78
2022/11/27 07:41:00;;;;;;;91.92;27.25;;;;;;;3.52;94.17;101546.98;2181077;81;21592;-78
2022/11/27 07:44:02;;;;;;;75.28;26.97;;;;;;;3.51;94.48;101543.95;2180035;80;21488;-77
2022/11/27 07:47:03;;;;;;;54.08;22.85;;;;;;;3.52;94.79;101541.73;2196279;80;21102;-77
2022/11/27 07:50:07;;;;;;;81.42;29.35;;;;;;;3.52;94.80;101549.60;2190721;80;20998;-78
2022/11/27 07:53:10;;;;;;;68.67;25.10;;;;;;;3.53;94.94;101546.03;2189821;80;20979;-79
2022/11/27 07:56:14;;;;;;;67.00;25.62;;;;;;;3.57;95.06;101550.16;2187404;80;21033;-80
2022/11/27 07:59:15;;;;;;;64.27;24.95;;;;;;;3.66;95.31;101544.02;2191987;80;21513;-77
2022/11/27 08:02:16;;;;;;;65.55;25.20;;;;;;;3.73;95.37;101544.91;2186128;80;21094;-79
2022/11/27 08:05:17;;;;;;;59.58;24.27;;;;;;;3.75;95.28;101538.27;2199331;80;21033;-75
2022/11/27 08:08:18;;;;;;;63.83;24.85;;;;;;;3.78;95.34;101534.14;2195769;80;20974;-73
2022/11/27 08:11:24;;;;;;;57.17;23.18;;;;;;;3.81;95.25;101532.66;2192247;80;21045;-75
2022/11/27 08:14:25;;;;;;;53.45;21.45;;;;;;;3.85;95.32;101538.09;2192445;80;21036;-77
2022/11/27 08:17:27;;;;;;;55.60;23.05;;;;;;;3.91;95.37;101536.89;2171704;81;21005;-78
2022/11/27 08:20:28;;;;;;;57.27;22.85;;;;;;;3.92;95.33;101529.41;2194590;80;21037;-77
2022/11/27 08:23:29;;;;;;;45.33;19.67;;;;;;;3.89;95.30;101517.77;2188988;80;20985;-76
2022/11/27 08:26:30;;;;;;;40.88;17.07;;;;;;;3.88;95.33;101524.78;2196531;80;21096;-79
2022/11/27 08:29:31;;;;;;;54.40;21.27;;;;;;;3.91;95.35;101532.95;2196666;80;21332;-79
2022/11/27 08:32:32;;;;;;;39.80;18.12;;;;;;;3.82;95.15;101525.98;2189980;79;21106;-80
2022/11/27 08:35:36;;;;;;;36.40;15.95;;;;;;;3.81;95.29;101524.78;2191250;80;21151;-80
2022/11/27 08:38:37;;;;;;;33.95;14.93;;;;;;;3.80;95.39;101537.06;2193793;80;21003;-79
2022/11/27 08:41:38;;;;;;;35.68;16.30;;;;;;;3.84;95.57;101531.16;2191100;80;20995;-78
2022/11/27 08:44:39;;;;;;;36.42;16.40;;;;;;;3.92;95.80;101527.63;2191975;80;21107;-78
2022/11/27 08:47:42;;;;;;;35.17;17.00;;;;;;;3.95;95.71;101527.44;2191876;80;21021;-79
2022/11/27 08:50:43;;;;;;;31.02;15.60;;;;;;;3.93;95.65;101538.50;2198038;80;21030;-78
2022/11/27 08:53:47;;;;;;;27.87;14.83;;;;;;;3.94;95.54;101544.59;2156174;81;21045;-78
2022/11/27 08:56:48;;;;;;;29.35;14.15;;;;;;;3.97;95.59;101532.59;2181469;81;21433;-79
2022/11/27 08:59:49;;;;;;;34.10;16.10;;;;;;;3.97;95.52;101541.34;2173853;81;21044;-79
2022/11/27 09:02:50;;;;;;;33.63;16.37;;;;;;;3.97;95.47;101543.97;2179956;80;21077;-79
2022/11/27 09:05:51;;;;;;;36.88;17.48;;;;;;;4.04;95.65;101547.91;2205853;80;21045;-79
2022/11/27 09:08:56;;;;;;;33.90;16.65;;;;;;;4.09;95.64;101545.50;2181177;80;21003;-79
2022/11/27 09:11:58;;;;;;;33.60;16.30;;;;;;;4.06;95.34;101545.20;2206935;80;21560;-79
2022/11/27 09:14:59;;;;;;;28.30;15.85;;;;;;;4.08;95.41;101547.25;2206072;80;21047;-79
2022/11/27 09:18:00;;;;;;;28.87;15.18;;;;;;;4.09;95.48;101548.13;2203299;80;20982;-79
2022/11/27 09:21:06;;;;;;;29.98;15.10;;;;;;;4.12;95.55;101544.84;2210754;80;21073;-78
2022/11/27 09:24:08;;;;;;;29.65;15.65;;;;;;;4.12;95.46;101536.13;2168942;80;20998;-79
2022/11/27 09:27:09;;;;;;;30.02;16.05;;;;;;;4.13;95.56;101532.55;2165443;80;21115;-79
2022/11/27 09:30:12;;;;;;;32.67;17.23;;;;;;;4.17;95.86;101535.39;2158432;82;21092;-80
2022/11/27 09:33:13;;;;;;;24.90;13.70;;;;;;;4.17;95.71;101532.76;2196560;79;21052;-79
2022/11/27 09:36:21;;;;;;;27.87;15.72;;;;;;;4.19;95.86;101519.04;2187499;79;21040;-79
2022/11/27 09:39:25;;;;;;;29.80;16.75;;;;;;;4.24;95.87;101523.56;2190800;79;21048;-78
2022/11/27 09:42:37;;;;;;;25.25;15.58;;;;;;;4.26;95.93;101523.01;2199538;79;20970;-78
2022/11/27 09:45:44;;;;;;;26.27;14.95;;;;;;;4.31;96.18;101518.33;2153253;79;21117;-78
2022/11/27 09:48:49;;;;;;;26.05;15.05;;;;;;;4.34;95.99;101512.88;2184132;79;21029;-77
2022/11/27 09:52:04;;;;;;;22.67;13.80;;;;;;;4.35;95.84;101514.56;2195737;79;21035;-79
2022/11/27 09:55:22;;;;;;;23.30;14.53;;;;;;;4.39;95.91;101512.14;2187690;79;21487;-79
2022/11/27 09:58:42;;;;;;;21.20;13.65;;;;;;;4.45;95.92;101504.36;2176457;80;21430;-79
2022/11/27 10:01:44;;;;;;;23.02;13.25;;;;;;;4.51;95.75;101507.08;2182378;81;20970;-78
2022/11/27 10:04:46;;;;;;;19.65;12.40;;;;;;;4.54;95.69;101509.04;2192205;80;21547;-78
2022/11/27 10:08:02;;;;;;;22.15;12.90;;;;;;;4.55;95.41;101504.63;2196840;80;21000;-77
2022/11/27 10:11:41;;;;;;;20.17;13.18;;;;;;;4.56;95.40;101499.29;2198824;80;21020;-78
2022/11/27 10:15:05;;;;;;;19.45;12.23;;;;;;;4.65;95.48;101491.30;2197241;80;21555;-77
2022/11/27 10:18:37;;;;;;;22.98;14.00;;;;;;;4.72;95.41;101480.76;2188705;80;21132;-78
2022/11/27 10:22:05;;;;;;;17.25;11.30;;;;;;;4.75;95.29;101477.94;2181289;80;21041;-78
2022/11/27 10:25:30;;;;;;;19.10;12.23;;;;;;;4.78;95.11;101475.11;2191952;80;21592;-78
2022/11/27 10:28:58;;;;;;;18.27;11.33;;;;;;;4.77;94.99;101469.97;2179230;81;21046;-78
2022/11/27 10:32:25;;;;;;;22.77;13.25;;;;;;;4.81;95.15;101469.66;2173471;80;21069;-78
2022/11/27 10:35:30;;;;;;;18.98;11.60;;;;;;;4.80;95.10;101467.14;2179961;81;21533;-78
2022/11/27 10:38:34;;;;;;;17.48;11.53;;;;;;;4.83;95.18;101461.69;2174226;81;20970;-79
2022/11/27 10:41:50;;;;;;;18.42;11.48;;;;;;;4.82;94.98;101461.32;2179579;81;20958;-78
2022/11/27 10:45:05;;;;;;;20.08;12.85;;;;;;;4.88;95.22;101453.87;2177604;81;21531;-77
2022/11/27 10:48:06;;;;;;;21.93;14.10;;;;;;;4.90;94.98;101452.00;2176467;81;21522;-78
2022/11/27 10:51:18;;;;;;;26.52;14.65;;;;;;;4.91;94.96;101460.73;2181755;81;20992;-77
2022/11/27 10:54:32;;;;;;;25.40;15.78;;;;;;;4.84;94.55;101445.82;2180118;81;21080;-78
2022/11/27 10:58:23;;;;;;;29.98;16.67;;;;;;;4.81;94.69;101449.09;2179863;81;21668;-77
2022/11/27 11:01:28;;;;;;;30.30;18.05;;;;;;;4.83;94.82;101443.27;2176296;80;21081;-78
2022/11/27 11:04:31;;;;;;;25.77;15.30;;;;;;;4.86;94.88;101438.66;2175717;81;21006;-78
2022/11/27 11:07:32;;;;;;;21.33;13.65;;;;;;;4.87;94.76;101440.36;2178163;81;21029;-78
2022/11/27 11:10:43;;;;;;;24.35;14.05;;;;;;;4.90;94.71;101448.53;2172160;81;21530;-78
2022/11/27 11:13:49;;;;;;;22.98;14.98;;;;;;;4.87;94.72;101433.79;2171661;81;21112;-77
2022/11/27 11:16:52;;;;;;;24.32;14.30;;;;;;;4.89;94.79;101429.73;2176483;81;21002;-77
2022/11/27 11:19:54;;;;;;;24.57;14.70;;;;;;;4.89;94.79;101425.30;2190809;80;21019;-77
2022/11/27 11:22:55;;;;;;;21.27;13.28;;;;;;;4.93;94.94;101425.98;2193961;80;21427;-77
2022/11/27 11:26:21;;;;;;;22.67;13.85;;;;;;;4.99;95.02;101421.62;2194351;80;21050;-77
2022/11/27 11:29:46;;;;;;;22.50;14.53;;;;;;;5.04;95.10;101422.63;2194763;80;21535;-75
2022/11/27 11:32:48;;;;;;;20.30;12.82;;;;;;;5.06;94.78;101416.80;2173061;80;21880;-77
2022/11/27 11:35:56;;;;;;;18.90;11.25;;;;;;;5.02;94.54;101421.43;2195405;80;21528;-77
2022/11/27 11:38:57;;;;;;;19.27;12.05;;;;;;;4.98;94.34;101409.40;2193354;80;21090;-77
2022/11/27 11:41:59;;;;;;;18.67;11.90;;;;;;;4.97;94.42;101412.15;2170313;81;21032;-77
2022/11/27 11:45:12;;;;;;;17.57;11.60;;;;;;;5.00;94.52;101413.27;2173016;81;22127;-76
2022/11/27 11:48:27;;;;;;;33.08;18.40;;;;;;;5.03;94.55;101410.43;2166200;81;21077;-77
2022/11/27 11:51:51;;;;;;;19.17;12.50;;;;;;;5.14;94.94;101408.78;2162730;81;21566;-76
2022/11/27 11:55:05;;;;;;;22.00;12.00;;;;;;;5.27;94.65;101410.63;2192211;80;21493;-77
2022/11/27 11:58:33;;;;;;;17.23;10.75;;;;;;;5.33;94.40;101415.00;2195152;80;22403;-77
2022/11/27 12:01:55;;;;;;;20.55;11.65;;;;;;;5.38;94.24;101401.08;2195799;80;21052;-77
2022/11/27 12:05:24;;;;;;;17.00;10.63;;;;;;;5.40;93.52;101399.16;2195100;80;20973;-77
2022/11/27 12:08:46;;;;;;;14.87;10.05;;;;;;;5.42;93.65;101400.39;2197190;80;21504;-79
2022/11/27 12:12:22;;;;;;;19.30;12.23;;;;;;;5.43;93.40;101398.59;2115137;82;21548;-80
2022/11/27 12:16:07;;;;;;;19.00;12.63;;;;;;;5.48;93.59;101401.29;2191958;80;21654;-77
2022/11/27 12:19:41;;;;;;;18.67;12.37;;;;;;;5.59;93.78;101393.52;2166076;80;21537;-77
2022/11/27 12:22:51;;;;;;;19.52;13.93;;;;;;;5.68;93.44;101392.53;2131264;82;21112;-77
2022/11/27 12:26:33;;;;;;;17.25;11.30;;;;;;;5.64;92.72;101395.84;2160544;82;20996;-77
2022/11/27 12:29:39;;;;;;;33.58;19.23;;;;;;;5.56;92.26;101390.25;2191558;80;20981;-76
2022/11/27 12:33:03;;;;;;;22.65;13.10;;;;;;;5.54;92.37;101396.09;2193164;80;21087;-77
2022/11/27 12:36:20;;;;;;;16.62;11.65;;;;;;;5.50;91.89;101388.04;2166901;81;21071;-75
2022/11/27 12:39:35;;;;;;;18.05;10.38;;;;;;;5.46;91.87;101396.59;2192922;80;21501;-77
2022/11/27 12:43:25;;;;;;;46.13;21.87;;;;;;;5.46;91.91;101391.80;2209207;79;21141;-77
2022/11/27 12:46:36;;;;;;;25.50;11.48;;;;;;;5.45;92.01;101388.81;2177042;81;21784;-77
2022/11/27 12:49:46;;;;;;;;;;;;;;;5.47;91.72;101386.93;2175042;80;21587;-77
2022/11/27 12:53:10;;;;;;;19.42;12.25;;;;;;;5.48;91.89;101389.92;2209123;79;20500;-76
2022/11/27 12:56:23;;;;;;;18.48;11.55;;;;;;;5.56;92.28;101393.72;2194941;80;21006;-76
2022/11/27 12:59:32;;;;;;;18.98;12.15;;;;;;;5.57;91.75;101390.61;2199983;80;21527;-75
2022/11/27 13:02:37;;;;;;;16.60;11.00;;;;;;;5.60;91.74;101387.77;2195559;80;21023;-76
2022/11/27 13:05:44;;;;;;;18.77;11.33;;;;;;;5.62;91.64;101392.47;2188325;80;21014;-75
2022/11/27 13:09:09;;;;;;;22.52;11.73;;;;;;;5.62;91.41;101379.30;2196739;80;21540;-77
2022/11/27 13:12:15;;;;;;;17.02;10.43;;;;;;;5.64;91.35;101387.95;2194745;80;21001;-77
2022/11/27 13:15:40;;;;;;;18.87;11.80;;;;;;;5.59;90.99;101389.56;2191566;80;21559;-76
2022/11/27 13:19:10;;;;;;;15.85;10.28;;;;;;;5.64;91.23;101386.63;2169203;80;21025;-74
2022/11/27 13:22:19;;;;;;;18.27;11.40;;;;;;;5.65;91.02;101383.04;2212132;79;20936;-76
2022/11/27 13:25:21;;;;;;;19.25;10.90;;;;;;;5.62;90.79;101378.83;2193071;80;21025;-75
2022/11/27 13:28:37;;;;;;;18.82;11.12;;;;;;;5.64;90.96;101380.05;2194655;80;21064;-73
2022/11/27 13:31:43;;;;;;;16.25;10.82;;;;;;;5.63;90.76;101377.03;2186468;79;21591;-79
2022/11/27 13:34:49;;;;;;;30.80;18.10;;;;;;;5.64;91.03;101370.00;2194626;80;21500;-77
2022/11/27 13:38:11;;;;;;;27.62;17.57;;;;;;;5.64;90.92;101364.25;2197204;80;21097;-77
2022/11/27 13:41:24;;;;;;;23.55;14.60;;;;;;;5.62;90.96;101366.97;2188574;80;21018;-78
2022/11/27 13:44:29;;;;;;;18.15;10.90;;;;;;;5.70;91.26;101369.09;2163825;81;21043;-74
2022/11/27 13:47:45;;;;;;;16.90;10.65;;;;;;;5.67;90.72;101365.36;2194532;80;21022;-77
2022/11/27 13:50:45;;;;;;;16.87;10.50;;;;;;;5.60;90.43;101362.75;2178516;80;21030;-79
2022/11/27 13:53:47;;;;;;;19.10;10.95;;;;;;;5.53;90.51;101358.39;2154960;81;21039;-79
2022/11/27 13:56:50;;;;;;;18.57;11.63;;;;;;;5.48;90.35;101355.70;2169646;80;21005;-78
2022/11/27 14:00:08;;;;;;;19.07;11.33;;;;;;;5.36;90.18;101350.31;2157907;81;21053;-74
2022/11/27 14:03:25;;;;;;;17.25;10.88;;;;;;;5.30;90.39;101352.53;2149482;81;21044;-72
2022/11/27 14:06:30;;;;;;;19.70;11.70;;;;;;;5.27;90.48;101345.67;2177002;80;21062;-73
2022/11/27 14:09:39;;;;;;;19.52;12.00;;;;;;;5.26;90.56;101348.39;2154175;81;21029;-72
2022/11/27 14:13:03;;;;;;;23.47;13.00;;;;;;;5.29;90.73;101342.45;2158413;81;21098;-72
2022/11/27 14:16:35;;;;;;;21.73;12.58;;;;;;;5.32;90.74;101342.72;2186366;80;21013;-73
2022/11/27 14:19:49;;;;;;;22.22;13.62;;;;;;;5.29;90.54;101346.39;2185193;80;21627;-73
2022/11/27 14:22:54;;;;;;;24.55;13.93;;;;;;;5.18;90.45;101338.41;2143292;81;21866;-72